createdAt,value
2017-11-16T00:02:27.590Z,59.37
2017-11-16T00:04:58.452Z,61.00
2017-11-16T00:07:28.325Z,58.40
2017-11-16T00:09:58.197Z,57.63
2017-11-16T00:12:28.042Z,59.67
2017-11-16T00:14:57.917Z,54.63
2017-11-16T00:17:27.850Z,50.53
2017-11-16T00:19:57.715Z,55.73
2017-11-16T00:22:27.594Z,53.57
2017-11-16T00:24:57.452Z,53.27
2017-11-16T00:27:27.323Z,58.57
2017-11-16T00:29:57.211Z,73.67
2017-11-16T00:32:27.106Z,71.90
2017-11-16T00:34:56.990Z,83.27
2017-11-16T00:37:26.844Z,87.07
2017-11-16T00:39:56.718Z,119.33
2017-11-16T00:42:26.594Z,111.30
2017-11-16T00:44:56.462Z,106.43
2017-11-16T00:47:26.347Z,126.47
2017-11-16T00:49:56.192Z,130.67
2017-11-16T00:52:26.074Z,224.77
2017-11-16T00:54:55.940Z,149.33
2017-11-16T00:57:26.201Z,202.90
2017-11-16T00:59:56.061Z,197.50
2017-11-16T01:02:25.944Z,235.57
2017-11-16T01:04:55.909Z,314.27
2017-11-16T01:07:25.799Z,242.50
2017-11-16T01:09:55.655Z,224.33
2017-11-16T01:12:25.615Z,330.30
2017-11-16T01:14:55.483Z,291.13
2017-11-16T01:17:25.354Z,222.87
2017-11-16T01:19:55.235Z,370.70
2017-11-16T01:22:25.119Z,258.87
2017-11-16T01:24:54.996Z,474.03
2017-11-16T01:27:24.859Z,262.20
2017-11-16T01:29:54.803Z,223.23
2017-11-16T01:32:24.662Z,311.60
2017-11-16T01:34:54.540Z,293.23
2017-11-16T01:37:24.427Z,290.93
2017-11-16T01:39:54.299Z,293.87
2017-11-16T01:42:24.184Z,374.80
2017-11-16T01:45:02.218Z,400.60
2017-11-16T01:47:32.253Z,289.63
2017-11-16T01:50:02.120Z,230.10
2017-11-16T01:52:32.015Z,230.07
2017-11-16T01:55:01.999Z,243.30
2017-11-16T01:57:31.908Z,263.97
2017-11-16T02:00:02.217Z,252.93
2017-11-16T02:02:39.961Z,246.43
2017-11-16T02:05:09.834Z,223.77
2017-11-16T02:07:39.780Z,213.93
2017-11-16T02:10:09.656Z,193.50
2017-11-16T02:12:39.530Z,203.37
2017-11-16T02:15:09.398Z,183.83
2017-11-16T02:17:39.251Z,184.90
2017-11-16T02:20:09.186Z,200.40
2017-11-16T02:22:39.031Z,218.03
2017-11-16T02:25:08.906Z,199.97
2017-11-16T02:27:38.759Z,205.20
2017-11-16T02:30:08.727Z,200.67
2017-11-16T02:32:38.616Z,206.60
2017-11-16T02:35:08.471Z,221.33
2017-11-16T02:37:38.308Z,201.27
2017-11-16T02:40:08.187Z,173.20
2017-11-16T02:42:38.051Z,201.50
2017-11-16T02:45:07.904Z,190.20
2017-11-16T02:47:37.776Z,182.33
2017-11-16T02:50:07.639Z,169.97
2017-11-16T02:52:37.526Z,172.97
2017-11-16T02:55:07.441Z,160.40
2017-11-16T02:57:37.470Z,177.77
2017-11-16T03:00:07.339Z,166.73
2017-11-16T03:02:37.196Z,172.70
2017-11-16T03:05:07.083Z,164.97
2017-11-16T03:07:36.978Z,172.47
2017-11-16T03:10:07.809Z,168.97
2017-11-16T03:12:37.664Z,174.97
2017-11-16T03:15:07.541Z,149.27
2017-11-16T03:17:38.239Z,165.50
2017-11-16T03:20:08.126Z,149.30
2017-11-16T03:22:38.007Z,165.03
2017-11-16T03:25:07.859Z,148.10
2017-11-16T03:27:37.742Z,157.60
2017-11-16T03:30:07.590Z,152.03
2017-11-16T03:32:37.758Z,137.63
2017-11-16T03:35:07.618Z,139.87
2017-11-16T03:37:37.618Z,142.37
2017-11-16T03:40:08.168Z,129.17
2017-11-16T03:42:38.022Z,134.77
2017-11-16T03:45:07.893Z,134.20
2017-11-16T03:47:37.774Z,117.40
2017-11-16T03:50:07.664Z,122.57
2017-11-16T03:52:37.551Z,127.57
2017-11-16T03:55:07.431Z,128.83
2017-11-16T03:57:37.290Z,135.63
2017-11-16T04:00:07.142Z,136.20
2017-11-16T04:02:37.041Z,120.60
2017-11-16T04:05:06.894Z,132.50
2017-11-16T04:07:36.787Z,128.20
2017-11-16T04:10:06.643Z,121.63
2017-11-16T04:12:36.515Z,121.87
2017-11-16T04:15:06.383Z,111.53
2017-11-16T04:17:36.276Z,124.10
2017-11-16T04:20:06.755Z,106.87
2017-11-16T04:22:36.603Z,109.73
2017-11-16T04:25:06.471Z,105.73
2017-11-16T04:27:36.316Z,105.97
2017-11-16T04:30:06.634Z,105.93
2017-11-16T04:32:36.594Z,98.00
2017-11-16T04:35:06.447Z,109.20
2017-11-16T04:37:36.352Z,95.00
2017-11-16T04:40:06.198Z,97.63
2017-11-16T04:42:36.055Z,85.10
2017-11-16T04:45:05.939Z,83.50
2017-11-16T04:47:35.828Z,87.67
2017-11-16T04:50:05.720Z,77.87
2017-11-16T04:52:35.587Z,83.60
2017-11-16T04:55:05.460Z,75.97
2017-11-16T04:57:36.214Z,81.67
2017-11-16T05:00:06.590Z,86.83
2017-11-16T05:02:36.475Z,76.50
2017-11-16T05:05:06.347Z,89.87
2017-11-16T05:07:36.285Z,101.57
2017-11-16T05:10:06.725Z,83.80
2017-11-16T05:12:36.670Z,81.07
2017-11-16T05:15:06.537Z,80.50
2017-11-16T05:17:36.410Z,86.80
2017-11-16T05:20:06.287Z,80.77
2017-11-16T05:22:36.136Z,99.30
2017-11-16T05:25:06.015Z,94.97
2017-11-16T05:27:35.899Z,97.17
2017-11-16T05:30:05.795Z,99.33
2017-11-16T05:32:35.777Z,84.60
2017-11-16T05:35:05.870Z,89.17
2017-11-16T05:37:35.786Z,86.43
2017-11-16T05:40:05.659Z,94.73
2017-11-16T05:42:36.099Z,92.93
2017-11-16T05:45:05.977Z,91.00
2017-11-16T05:47:36.211Z,110.53
2017-11-16T05:50:06.665Z,94.17
2017-11-16T05:52:36.682Z,95.03
2017-11-16T05:55:06.574Z,100.93
2017-11-16T05:57:36.425Z,109.60
2017-11-16T06:00:06.291Z,107.97
2017-11-16T06:02:36.227Z,88.13
2017-11-16T06:05:06.075Z,106.43
2017-11-16T06:07:35.960Z,91.67
2017-11-16T06:10:05.809Z,91.73
2017-11-16T06:12:35.784Z,104.90
2017-11-16T06:15:05.653Z,103.70
2017-11-16T06:17:35.531Z,81.60
2017-11-16T06:20:05.380Z,97.20
2017-11-16T06:22:35.450Z,80.33
2017-11-16T06:25:05.563Z,93.93
2017-11-16T06:27:35.513Z,89.87
2017-11-16T06:30:05.396Z,98.37
2017-11-16T06:32:35.255Z,82.60
2017-11-16T06:35:05.138Z,86.03
2017-11-16T06:37:34.990Z,86.53
2017-11-16T06:40:04.888Z,87.97
2017-11-16T06:42:34.734Z,94.70
2017-11-16T06:45:04.616Z,91.83
2017-11-16T06:47:34.456Z,91.33
2017-11-16T06:50:04.334Z,89.20
2017-11-16T06:52:34.227Z,82.77
2017-11-16T06:55:04.082Z,88.30
2017-11-16T06:57:33.964Z,84.13
2017-11-16T07:00:03.811Z,82.70
2017-11-16T07:02:33.689Z,84.70
2017-11-16T07:05:03.552Z,79.40
2017-11-16T07:07:33.455Z,508.23
2017-11-16T07:10:03.341Z,81.83
2017-11-16T07:12:33.236Z,74.90
2017-11-16T07:15:03.118Z,72.10
2017-11-16T07:17:32.986Z,77.70
2017-11-16T07:20:02.865Z,76.50
2017-11-16T07:22:32.738Z,64.53
2017-11-16T07:25:02.621Z,67.03
2017-11-16T07:27:33.521Z,71.43
2017-11-16T07:30:03.429Z,62.47
2017-11-16T07:32:33.288Z,81.20
2017-11-16T07:35:03.239Z,68.57
2017-11-16T07:37:33.091Z,60.10
2017-11-16T07:40:02.991Z,66.20
2017-11-16T07:42:32.895Z,67.17
2017-11-16T07:45:02.768Z,61.70
2017-11-16T07:47:32.642Z,51.30
2017-11-16T07:50:02.542Z,60.80
2017-11-16T07:52:32.465Z,56.00
2017-11-16T07:55:02.387Z,52.90
2017-11-16T07:57:32.391Z,54.67
2017-11-16T08:00:02.336Z,50.87
2017-11-16T08:02:32.237Z,52.30
2017-11-16T08:05:02.104Z,44.17
2017-11-16T08:07:32.012Z,52.53
2017-11-16T08:10:01.883Z,44.67
2017-11-16T08:25:31.779Z,46.53
2017-11-16T08:28:01.631Z,40.97
2017-11-16T08:30:31.582Z,40.53
2017-11-16T08:33:01.452Z,44.70
2017-11-16T08:35:31.364Z,45.40
2017-11-16T08:38:01.251Z,45.80
2017-11-16T08:40:31.106Z,41.63
2017-11-16T08:43:01.061Z,59.27
2017-11-16T08:45:30.907Z,47.70
2017-11-16T08:48:00.779Z,45.40
2017-11-16T08:50:30.695Z,53.83
2017-11-16T08:53:00.577Z,44.43
2017-11-16T08:55:30.419Z,40.37
2017-11-16T08:58:00.273Z,47.33
2017-11-16T09:00:30.151Z,41.90
2017-11-16T09:03:00.180Z,42.77
2017-11-16T09:05:30.087Z,44.23
2017-11-16T09:07:59.954Z,48.00
2017-11-16T09:10:30.587Z,43.53
2017-11-16T09:13:00.461Z,43.57
2017-11-16T09:15:30.323Z,47.40
2017-11-16T09:18:00.184Z,44.27
2017-11-16T09:20:30.046Z,47.90
2017-11-16T09:22:59.926Z,48.43
2017-11-16T09:25:29.771Z,47.30
2017-11-16T09:27:59.685Z,44.10
2017-11-16T09:30:29.536Z,51.57
2017-11-16T09:32:59.406Z,54.47
2017-11-16T09:35:29.350Z,53.67
2017-11-16T09:37:59.203Z,50.97
2017-11-16T09:40:29.095Z,43.83
2017-11-16T09:42:58.954Z,48.03
2017-11-16T09:45:28.842Z,49.93
2017-11-16T09:47:58.701Z,43.27
2017-11-16T09:50:28.604Z,48.80
2017-11-16T09:52:58.461Z,57.73
2017-11-16T09:55:28.320Z,57.90
2017-11-16T09:57:58.355Z,51.43
2017-11-16T10:00:28.198Z,44.50
2017-11-16T10:02:58.085Z,49.27
2017-11-16T10:05:27.940Z,53.57
2017-11-16T10:07:57.841Z,50.90
2017-11-16T10:10:27.714Z,50.53
2017-11-16T10:12:57.600Z,51.23
2017-11-16T10:15:27.540Z,52.20
2017-11-16T10:17:57.399Z,47.83
2017-11-16T10:20:27.287Z,49.17
2017-11-16T10:22:57.148Z,50.23
2017-11-16T10:25:27.045Z,48.60
2017-11-16T10:27:56.998Z,44.33
2017-11-16T10:30:26.934Z,45.00
2017-11-16T10:32:56.825Z,49.43
2017-11-16T10:35:26.704Z,47.73
2017-11-16T10:37:56.595Z,50.90
2017-11-16T10:40:26.488Z,40.10
2017-11-16T10:42:56.345Z,60.17
2017-11-16T10:45:26.222Z,45.20
2017-11-16T10:47:56.171Z,39.87
2017-11-16T10:50:26.040Z,45.40
2017-11-16T10:52:55.928Z,44.73
2017-11-16T10:55:25.802Z,38.30
2017-11-16T10:57:55.719Z,36.07
2017-11-16T11:00:25.613Z,37.70
2017-11-16T11:02:55.527Z,33.10
2017-11-16T11:05:25.378Z,36.83
2017-11-16T11:07:55.271Z,33.87
2017-11-16T11:10:25.158Z,34.70
2017-11-16T11:12:55.023Z,35.90
2017-11-16T11:15:24.907Z,33.73
2017-11-16T11:17:54.773Z,37.00
2017-11-16T11:20:24.659Z,34.07
2017-11-16T11:22:54.528Z,30.20
2017-11-16T11:25:24.503Z,36.53
2017-11-16T11:27:54.373Z,31.30
2017-11-16T11:30:24.256Z,36.20
2017-11-16T11:32:54.126Z,30.13
2017-11-16T11:35:24.002Z,29.37
2017-11-16T11:37:53.921Z,30.27
2017-11-16T11:40:23.783Z,30.70
2017-11-16T11:42:53.770Z,46.20
2017-11-16T11:45:23.627Z,31.77
2017-11-16T11:47:53.510Z,32.40
2017-11-16T11:50:24.280Z,31.20
2017-11-16T11:52:54.142Z,36.10
2017-11-16T11:55:24.031Z,27.40
2017-11-16T11:57:53.938Z,32.47
2017-11-16T12:00:23.815Z,30.10
2017-11-16T12:02:53.670Z,31.00
2017-11-16T12:05:23.564Z,34.03
2017-11-16T12:07:53.432Z,42.77
2017-11-16T12:10:23.302Z,33.33
2017-11-16T12:12:53.192Z,30.20
2017-11-16T12:15:23.067Z,25.57
2017-11-16T12:17:53.251Z,30.10
2017-11-16T12:20:23.118Z,30.03
2017-11-16T12:22:52.999Z,26.53
2017-11-16T12:25:22.850Z,33.87
2017-11-16T12:27:52.750Z,24.17
2017-11-16T12:30:22.659Z,27.10
2017-11-16T12:32:52.507Z,31.50
2017-11-16T12:35:22.353Z,23.03
2017-11-16T12:37:52.219Z,23.80
2017-11-16T12:40:22.119Z,23.23
2017-11-16T12:42:51.989Z,31.90
2017-11-16T12:45:21.886Z,23.43
2017-11-16T12:47:51.771Z,20.57
2017-11-16T12:50:21.664Z,22.30
2017-11-16T12:52:51.514Z,22.73
2017-11-16T12:55:21.405Z,24.47
2017-11-16T12:57:51.252Z,21.73
2017-11-16T13:00:21.111Z,23.00
2017-11-16T13:02:51.015Z,23.90
2017-11-16T13:05:20.905Z,22.70
2017-11-16T13:07:50.808Z,26.90
2017-11-16T13:10:20.708Z,25.40
2017-11-16T13:12:50.606Z,27.97
2017-11-16T13:15:20.480Z,27.70
2017-11-16T13:17:50.363Z,25.17
2017-11-16T13:20:20.281Z,24.30
2017-11-16T13:22:50.151Z,26.27
2017-11-16T13:25:20.294Z,22.90
2017-11-16T13:27:50.377Z,24.20
2017-11-16T13:30:20.353Z,24.40
2017-11-16T13:32:50.215Z,22.93
2017-11-16T13:35:20.092Z,19.43
2017-11-16T13:37:50.059Z,20.87
2017-11-16T13:40:19.983Z,20.27
2017-11-16T13:42:50.199Z,24.40
2017-11-16T13:45:20.114Z,22.17
2017-11-16T13:47:50.060Z,24.57
2017-11-16T13:50:20.099Z,27.73
2017-11-16T13:52:50.114Z,24.90
2017-11-16T13:55:20.089Z,27.00
2017-11-16T13:57:50.007Z,25.47
2017-11-16T14:00:19.976Z,28.37
2017-11-16T14:02:49.879Z,27.27
2017-11-16T14:05:19.755Z,28.60
2017-11-16T14:07:49.639Z,24.03
2017-11-16T14:10:19.534Z,26.80
2017-11-16T14:12:49.472Z,24.30
2017-11-16T14:15:19.413Z,26.50
2017-11-16T14:17:49.313Z,27.10
2017-11-16T14:20:19.184Z,25.53
2017-11-16T14:22:49.233Z,27.73
2017-11-16T14:25:19.118Z,31.23
2017-11-16T14:27:49.003Z,26.70
2017-11-16T14:30:18.864Z,26.03
2017-11-16T14:32:48.864Z,31.10
2017-11-16T14:35:18.746Z,30.43
2017-11-16T14:37:48.687Z,36.73
2017-11-16T14:40:18.559Z,33.60
2017-11-16T14:42:48.465Z,36.80
2017-11-16T14:45:18.351Z,35.93
2017-11-16T14:47:48.244Z,33.80
2017-11-16T14:50:18.131Z,31.00
2017-11-16T14:52:48.023Z,31.00
2017-11-16T14:55:18.003Z,36.03
2017-11-16T14:57:47.889Z,36.00
2017-11-16T15:00:17.911Z,33.03
2017-11-16T15:02:47.981Z,39.40
2017-11-16T15:05:17.971Z,38.77
2017-11-16T15:07:47.879Z,37.23
2017-11-16T15:10:17.941Z,35.77
2017-11-16T15:12:47.868Z,40.00
2017-11-16T15:15:17.797Z,38.53
2017-11-16T15:17:47.650Z,39.63
2017-11-16T15:20:17.540Z,36.50
2017-11-16T15:22:47.400Z,42.17
2017-11-16T15:25:17.264Z,41.30
2017-11-16T15:27:47.156Z,33.47
2017-11-16T15:30:17.027Z,39.20
2017-11-16T15:32:46.978Z,38.80
2017-11-16T15:35:16.836Z,42.47
2017-11-16T15:37:46.737Z,35.93
2017-11-16T15:40:16.662Z,36.27
2017-11-16T15:42:46.556Z,38.43
2017-11-16T15:47:52.720Z,38.03
2017-11-16T15:50:22.624Z,40.53
2017-11-16T15:52:52.516Z,36.43
2017-11-16T15:55:22.377Z,39.27
2017-11-16T15:57:52.359Z,46.70
2017-11-16T16:00:22.220Z,36.77
2017-11-16T16:02:52.107Z,38.43
2017-11-16T16:05:22.025Z,35.87
2017-11-16T16:07:51.887Z,40.80
2017-11-16T16:10:21.773Z,36.67
2017-11-16T16:12:51.644Z,40.60
2017-11-16T16:15:21.531Z,39.83
2017-11-16T16:17:51.396Z,38.40
2017-11-16T16:20:21.267Z,33.33
2017-11-16T16:22:51.143Z,34.57
2017-11-16T16:25:21.024Z,38.17
2017-11-16T16:27:50.939Z,42.73
2017-11-16T16:30:20.827Z,43.60
2017-11-16T16:32:50.750Z,46.03
2017-11-16T16:35:20.614Z,46.80
2017-11-16T16:37:50.632Z,47.03
2017-11-16T16:40:20.491Z,38.77
2017-11-16T16:42:50.425Z,40.90
2017-11-16T16:45:20.322Z,43.53
2017-11-16T16:47:50.200Z,44.83
2017-11-16T16:50:20.119Z,44.07
2017-11-16T16:52:50.048Z,45.40
2017-11-16T16:55:20.054Z,45.13
2017-11-16T16:57:49.939Z,45.70
2017-11-16T17:00:19.825Z,45.40
2017-11-16T17:02:49.698Z,40.37
2017-11-16T17:05:19.617Z,46.67
2017-11-16T17:07:49.555Z,40.40
2017-11-16T17:10:19.460Z,43.93
2017-11-16T17:12:49.417Z,45.03
2017-11-16T17:15:19.299Z,38.63
2017-11-16T17:17:49.230Z,46.60
2017-11-16T17:20:19.108Z,40.17
2017-11-16T17:22:49.064Z,40.80
2017-11-16T17:25:18.939Z,45.53
2017-11-16T17:27:48.906Z,40.77
2017-11-16T17:30:18.940Z,39.63
2017-11-16T17:32:48.888Z,40.60
2017-11-16T17:35:18.999Z,40.40
2017-11-16T17:37:48.918Z,38.37
2017-11-16T17:40:18.915Z,37.50
2017-11-16T17:42:48.978Z,37.20
2017-11-16T17:45:18.851Z,41.77
2017-11-16T17:47:48.824Z,40.43
2017-11-16T17:50:18.735Z,38.13
2017-11-16T17:52:48.719Z,40.47
2017-11-16T17:55:18.610Z,44.13
2017-11-16T17:57:48.497Z,35.20
2017-11-16T18:00:18.397Z,38.27
2017-11-16T18:02:48.358Z,43.53
2017-11-16T18:05:18.433Z,44.60
2017-11-16T18:07:48.306Z,45.37
2017-11-16T18:10:18.231Z,48.10
2017-11-16T18:12:48.123Z,47.87
2017-11-16T18:15:18.084Z,49.70
2017-11-16T18:17:48.020Z,47.13
2017-11-16T18:20:17.946Z,46.50
2017-11-16T18:22:47.814Z,47.90
2017-11-16T18:25:17.695Z,54.53
2017-11-16T18:27:47.560Z,52.43
2017-11-16T18:30:17.478Z,49.50
2017-11-16T18:32:47.352Z,52.20
2017-11-16T18:35:17.275Z,49.47
2017-11-16T18:37:47.262Z,50.43
2017-11-16T18:40:17.210Z,56.23
2017-11-16T18:42:47.155Z,56.40
2017-11-16T18:45:17.055Z,53.00
2017-11-16T18:47:47.015Z,58.60
2017-11-16T18:50:16.891Z,45.43
2017-11-16T18:52:46.840Z,55.10
2017-11-16T18:55:16.753Z,60.57
2017-11-16T18:57:46.658Z,64.37
2017-11-16T19:00:16.560Z,52.57
2017-11-16T19:02:46.472Z,58.37
2017-11-16T19:05:16.379Z,53.40
2017-11-16T19:07:46.276Z,69.40
2017-11-16T19:10:16.179Z,62.83
2017-11-16T19:12:46.207Z,54.37
2017-11-16T19:15:16.247Z,53.27
2017-11-16T19:17:46.449Z,66.27
2017-11-16T19:20:16.368Z,55.67
2017-11-16T19:22:46.269Z,59.97
2017-11-16T19:25:16.175Z,54.47
2017-11-16T19:27:46.054Z,58.20
2017-11-16T19:30:15.939Z,59.70
2017-11-16T19:32:45.888Z,49.90
2017-11-16T19:35:15.805Z,57.63
2017-11-16T19:37:45.662Z,58.63
2017-11-16T19:40:15.632Z,59.80
2017-11-16T19:42:45.550Z,58.93
2017-11-16T19:45:15.475Z,56.27
2017-11-16T19:47:45.371Z,58.63
2017-11-16T19:50:15.247Z,62.33
2017-11-16T19:52:45.265Z,55.60
2017-11-16T19:55:15.148Z,70.43
2017-11-16T19:57:45.095Z,64.83
2017-11-16T20:00:14.968Z,59.80
2017-11-16T20:02:44.950Z,53.60
2017-11-16T20:05:14.881Z,63.03
2017-11-16T20:07:44.780Z,60.63
2017-11-16T20:10:14.672Z,62.17
2017-11-16T20:12:44.598Z,63.63
2017-11-16T20:15:14.469Z,56.87
2017-11-16T20:17:44.429Z,54.10
2017-11-16T20:20:15.711Z,58.63
2017-11-16T20:22:45.613Z,53.10
2017-11-16T20:25:15.561Z,54.83
2017-11-16T20:27:45.417Z,63.93
2017-11-16T20:30:16.054Z,51.77
2017-11-16T20:32:45.962Z,54.77
2017-11-16T20:35:15.857Z,55.20
2017-11-16T20:38:00.584Z,62.20
2017-11-16T20:43:54.469Z,56.77
2017-11-16T20:46:33.133Z,59.47
2017-11-16T20:49:08.819Z,61.63
2017-11-16T20:51:44.399Z,52.07
2017-11-16T20:54:20.783Z,53.97
2017-11-16T20:56:50.647Z,64.30
2017-11-16T20:59:20.500Z,56.50
2017-11-16T21:01:50.423Z,60.03
2017-11-16T21:04:20.297Z,60.23
2017-11-16T21:06:50.198Z,60.63
2017-11-16T21:09:20.072Z,60.93
2017-11-16T21:11:49.960Z,63.80
2017-11-16T21:14:19.833Z,57.43
2017-11-16T21:16:49.822Z,66.13
2017-11-16T21:19:19.861Z,59.13
2017-11-16T21:21:49.789Z,64.33
2017-11-16T21:24:19.664Z,68.33
2017-11-16T21:26:49.583Z,61.73
2017-11-16T21:29:19.466Z,55.80
2017-11-16T21:31:49.338Z,62.70
2017-11-16T21:34:19.259Z,61.43
2017-11-16T21:36:49.143Z,64.63
2017-11-16T21:39:19.030Z,66.23
2017-11-16T21:41:48.935Z,76.23
2017-11-16T21:44:18.890Z,66.43
2017-11-16T21:46:48.769Z,61.80
2017-11-16T21:49:18.894Z,60.80
2017-11-16T21:51:48.756Z,59.97
2017-11-16T21:54:18.693Z,65.30
2017-11-16T21:56:48.587Z,67.40
2017-11-16T21:59:18.574Z,64.73
2017-11-16T22:01:48.452Z,68.30
2017-11-16T22:04:19.330Z,67.90
2017-11-16T22:06:49.206Z,69.20
2017-11-16T22:09:19.093Z,68.10
2017-11-16T22:11:49.004Z,68.00
2017-11-16T22:14:18.879Z,64.60
2017-11-16T22:16:48.769Z,71.33
2017-11-16T22:19:18.695Z,69.17
2017-11-16T22:21:48.633Z,80.47
2017-11-16T22:24:18.589Z,65.73
2017-11-16T22:26:48.488Z,74.47
2017-11-16T22:29:18.616Z,63.57
2017-11-16T22:31:48.487Z,55.67
2017-11-16T22:34:18.446Z,53.67
2017-11-16T22:36:48.312Z,41.20
2017-11-16T22:39:18.219Z,40.47
2017-11-16T22:41:48.242Z,30.50
2017-11-16T22:44:18.094Z,28.43
2017-11-16T22:46:48.121Z,25.03
2017-11-16T22:49:18.025Z,23.13
2017-11-16T22:51:47.959Z,14.97
2017-11-16T22:54:17.845Z,13.37
2017-11-16T22:56:47.716Z,9.17
2017-11-16T22:59:17.580Z,9.80
2017-11-16T23:01:48.065Z,9.33
2017-11-16T23:04:18.272Z,7.50
2017-11-16T23:06:48.246Z,7.10
2017-11-16T23:09:18.693Z,7.27
2017-11-16T23:11:48.550Z,7.20
2017-11-16T23:14:18.405Z,10.63
2017-11-16T23:16:48.267Z,7.17
2017-11-16T23:19:18.121Z,7.10
2017-11-16T23:21:48.037Z,6.57
2017-11-16T23:24:17.911Z,7.20
2017-11-16T23:26:47.854Z,5.63
2017-11-16T23:29:17.748Z,8.40
2017-11-16T23:31:47.650Z,4.60
2017-11-16T23:34:17.636Z,8.53
2017-11-16T23:36:47.598Z,4.90
2017-11-16T23:39:17.458Z,4.80
2017-11-16T23:41:47.371Z,8.60
2017-11-16T23:44:17.218Z,5.47
2017-11-16T23:46:47.108Z,8.37
2017-11-16T23:49:17.040Z,6.60
2017-11-16T23:51:46.942Z,8.63
2017-11-16T23:54:16.906Z,5.07
2017-11-16T23:56:46.786Z,6.83
2017-11-16T23:59:16.644Z,6.57
